sensor_id;sensor_type;location;lat;lon;timestamp;P1;durP1;ratioP1;P2;durP2;ratioP2
5416;SDS011;2731;50.754;12.990;2022-07-22T00:00:16;6.82;;;4.80;;
5416;SDS011;2731;50.754;12.990;2022-07-22T00:02:41;5.33;;;4.77;;
5416;SDS011;2731;50.754;12.990;2022-07-22T00:05:08;5.73;;;4.83;;
5416;SDS011;2731;50.754;12.990;2022-07-22T00:07:35;6.00;;;5.28;;
5416;SDS011;2731;50.754;12.990;2022-07-22T00:10:00;5.90;;;4.90;;
5416;SDS011;2731;50.754;12.990;2022-07-22T00:12:26;5.38;;;4.88;;
5416;SDS011;2731;50.754;12.990;2022-07-22T00:14:54;5.10;;;4.60;;
5416;SDS011;2731;50.754;12.990;2022-07-22T00:17:19;5.28;;;4.78;;
5416;SDS011;2731;50.754;12.990;2022-07-22T00:19:44;6.25;;;4.97;;
5416;SDS011;2731;50.754;12.990;2022-07-22T00:22:10;6.47;;;5.23;;
5416;SDS011;2731;50.754;12.990;2022-07-22T00:24:35;5.40;;;4.60;;
5416;SDS011;2731;50.754;12.990;2022-07-22T00:27:02;5.70;;;4.90;;
5416;SDS011;2731;50.754;12.990;2022-07-22T00:29:28;8.75;;;5.50;;
5416;SDS011;2731;50.754;12.990;2022-07-22T00:31:53;6.90;;;5.25;;
5416;SDS011;2731;50.754;12.990;2022-07-22T00:34:19;5.27;;;4.77;;
5416;SDS011;2731;50.754;12.990;2022-07-22T00:36:44;5.50;;;4.80;;
5416;SDS011;2731;50.754;12.990;2022-07-22T00:39:09;5.60;;;5.03;;
5416;SDS011;2731;50.754;12.990;2022-07-22T00:41:35;7.35;;;5.10;;
5416;SDS011;2731;50.754;12.990;2022-07-22T00:44:01;5.80;;;4.83;;
5416;SDS011;2731;50.754;12.990;2022-07-22T00:46:27;6.30;;;5.05;;
5416;SDS011;2731;50.754;12.990;2022-07-22T00:48:53;5.55;;;5.05;;
5416;SDS011;2731;50.754;12.990;2022-07-22T00:51:19;7.15;;;5.70;;
5416;SDS011;2731;50.754;12.990;2022-07-22T00:53:45;6.35;;;5.28;;
5416;SDS011;2731;50.754;12.990;2022-07-22T00:56:10;6.38;;;5.63;;
5416;SDS011;2731;50.754;12.990;2022-07-22T00:58:35;6.22;;;5.05;;
5416;SDS011;2731;50.754;12.990;2022-07-22T01:01:02;6.03;;;4.93;;
5416;SDS011;2731;50.754;12.990;2022-07-22T01:03:28;8.95;;;5.20;;
5416;SDS011;2731;50.754;12.990;2022-07-22T01:05:53;6.63;;;5.20;;
5416;SDS011;2731;50.754;12.990;2022-07-22T01:08:19;7.20;;;5.43;;
5416;SDS011;2731;50.754;12.990;2022-07-22T01:10:44;6.32;;;5.47;;
5416;SDS011;2731;50.754;12.990;2022-07-22T01:13:10;7.57;;;5.67;;
5416;SDS011;2731;50.754;12.990;2022-07-22T01:15:37;7.78;;;5.47;;
5416;SDS011;2731;50.754;12.990;2022-07-22T01:18:03;6.18;;;5.55;;
5416;SDS011;2731;50.754;12.990;2022-07-22T01:20:29;9.18;;;5.43;;
5416;SDS011;2731;50.754;12.990;2022-07-22T01:22:54;6.45;;;5.75;;
5416;SDS011;2731;50.754;12.990;2022-07-22T01:25:19;7.33;;;5.00;;
5416;SDS011;2731;50.754;12.990;2022-07-22T01:27:45;8.47;;;5.87;;
5416;SDS011;2731;50.754;12.990;2022-07-22T01:30:12;6.47;;;5.50;;
5416;SDS011;2731;50.754;12.990;2022-07-22T01:32:40;6.15;;;5.43;;
5416;SDS011;2731;50.754;12.990;2022-07-22T01:35:05;6.57;;;5.77;;
5416;SDS011;2731;50.754;12.990;2022-07-22T01:37:34;8.85;;;6.10;;
5416;SDS011;2731;50.754;12.990;2022-07-22T01:39:59;6.18;;;5.57;;
5416;SDS011;2731;50.754;12.990;2022-07-22T01:42:25;7.15;;;5.50;;
5416;SDS011;2731;50.754;12.990;2022-07-22T01:44:52;6.55;;;5.65;;
5416;SDS011;2731;50.754;12.990;2022-07-22T01:47:18;9.20;;;5.65;;
5416;SDS011;2731;50.754;12.990;2022-07-22T01:49:45;6.43;;;5.82;;
5416;SDS011;2731;50.754;12.990;2022-07-22T01:52:10;8.82;;;5.68;;
5416;SDS011;2731;50.754;12.990;2022-07-22T01:54:35;8.20;;;5.77;;
5416;SDS011;2731;50.754;12.990;2022-07-22T01:57:02;6.82;;;6.03;;
5416;SDS011;2731;50.754;12.990;2022-07-22T01:59:29;6.90;;;5.57;;
5416;SDS011;2731;50.754;12.990;2022-07-22T02:01:54;7.13;;;5.32;;
5416;SDS011;2731;50.754;12.990;2022-07-22T02:04:19;6.38;;;5.30;;
5416;SDS011;2731;50.754;12.990;2022-07-22T02:06:46;7.07;;;5.45;;
5416;SDS011;2731;50.754;12.990;2022-07-22T02:09:11;8.80;;;5.40;;
5416;SDS011;2731;50.754;12.990;2022-07-22T02:11:38;6.22;;;5.60;;
5416;SDS011;2731;50.754;12.990;2022-07-22T02:14:03;7.88;;;7.03;;
5416;SDS011;2731;50.754;12.990;2022-07-22T02:16:28;7.43;;;6.32;;
5416;SDS011;2731;50.754;12.990;2022-07-22T02:18:55;8.25;;;6.70;;
5416;SDS011;2731;50.754;12.990;2022-07-22T02:21:22;6.93;;;5.82;;
5416;SDS011;2731;50.754;12.990;2022-07-22T02:23:49;6.97;;;5.78;;
5416;SDS011;2731;50.754;12.990;2022-07-22T02:26:16;6.10;;;5.22;;
5416;SDS011;2731;50.754;12.990;2022-07-22T02:28:42;6.77;;;5.80;;
5416;SDS011;2731;50.754;12.990;2022-07-22T02:31:07;8.43;;;5.77;;
5416;SDS011;2731;50.754;12.990;2022-07-22T02:33:32;8.37;;;6.30;;
5416;SDS011;2731;50.754;12.990;2022-07-22T02:35:57;8.30;;;6.63;;
5416;SDS011;2731;50.754;12.990;2022-07-22T02:38:23;8.07;;;6.63;;
5416;SDS011;2731;50.754;12.990;2022-07-22T02:40:48;7.70;;;6.43;;
5416;SDS011;2731;50.754;12.990;2022-07-22T02:43:13;8.77;;;6.68;;
5416;SDS011;2731;50.754;12.990;2022-07-22T02:45:39;9.23;;;7.32;;
5416;SDS011;2731;50.754;12.990;2022-07-22T02:48:04;6.97;;;6.27;;
5416;SDS011;2731;50.754;12.990;2022-07-22T02:50:31;7.95;;;6.30;;
5416;SDS011;2731;50.754;12.990;2022-07-22T02:52:59;7.80;;;7.00;;
5416;SDS011;2731;50.754;12.990;2022-07-22T02:55:25;8.57;;;6.78;;
5416;SDS011;2731;50.754;12.990;2022-07-22T02:57:50;8.10;;;6.80;;
5416;SDS011;2731;50.754;12.990;2022-07-22T03:00:16;7.93;;;7.17;;
5416;SDS011;2731;50.754;12.990;2022-07-22T03:02:41;8.27;;;7.38;;
5416;SDS011;2731;50.754;12.990;2022-07-22T03:05:08;7.70;;;6.90;;
5416;SDS011;2731;50.754;12.990;2022-07-22T03:07:35;9.00;;;7.63;;
5416;SDS011;2731;50.754;12.990;2022-07-22T03:10:02;9.18;;;8.07;;
5416;SDS011;2731;50.754;12.990;2022-07-22T03:12:28;8.15;;;7.35;;
5416;SDS011;2731;50.754;12.990;2022-07-22T03:14:55;8.90;;;8.00;;
5416;SDS011;2731;50.754;12.990;2022-07-22T03:17:23;10.90;;;8.35;;
5416;SDS011;2731;50.754;12.990;2022-07-22T03:19:48;8.85;;;7.88;;
5416;SDS011;2731;50.754;12.990;2022-07-22T03:22:14;9.73;;;7.68;;
5416;SDS011;2731;50.754;12.990;2022-07-22T03:24:40;8.50;;;7.60;;
5416;SDS011;2731;50.754;12.990;2022-07-22T03:27:05;8.75;;;7.85;;
5416;SDS011;2731;50.754;12.990;2022-07-22T03:29:30;9.70;;;7.85;;
5416;SDS011;2731;50.754;12.990;2022-07-22T03:31:56;9.50;;;7.97;;
5416;SDS011;2731;50.754;12.990;2022-07-22T03:34:22;13.07;;;8.03;;
5416;SDS011;2731;50.754;12.990;2022-07-22T03:36:48;9.45;;;8.18;;
5416;SDS011;2731;50.754;12.990;2022-07-22T03:39:15;9.82;;;8.52;;
5416;SDS011;2731;50.754;12.990;2022-07-22T03:41:40;9.20;;;7.30;;
5416;SDS011;2731;50.754;12.990;2022-07-22T03:44:06;8.88;;;7.78;;
5416;SDS011;2731;50.754;12.990;2022-07-22T03:46:32;10.77;;;8.90;;
5416;SDS011;2731;50.754;12.990;2022-07-22T03:48:58;8.53;;;7.53;;
5416;SDS011;2731;50.754;12.990;2022-07-22T03:51:23;9.68;;;7.72;;
5416;SDS011;2731;50.754;12.990;2022-07-22T03:53:50;8.73;;;7.30;;
5416;SDS011;2731;50.754;12.990;2022-07-22T03:56:16;8.75;;;7.50;;
5416;SDS011;2731;50.754;12.990;2022-07-22T03:58:41;9.57;;;8.27;;
5416;SDS011;2731;50.754;12.990;2022-07-22T04:01:07;8.90;;;7.80;;
5416;SDS011;2731;50.754;12.990;2022-07-22T04:03:32;8.52;;;7.63;;
5416;SDS011;2731;50.754;12.990;2022-07-22T04:05:57;11.30;;;7.60;;
5416;SDS011;2731;50.754;12.990;2022-07-22T04:08:23;8.55;;;7.25;;
5416;SDS011;2731;50.754;12.990;2022-07-22T04:10:48;8.80;;;7.90;;
5416;SDS011;2731;50.754;12.990;2022-07-22T04:13:13;8.97;;;8.07;;
5416;SDS011;2731;50.754;12.990;2022-07-22T04:15:39;9.23;;;8.23;;
5416;SDS011;2731;50.754;12.990;2022-07-22T04:18:04;8.75;;;7.60;;
5416;SDS011;2731;50.754;12.990;2022-07-22T04:20:29;8.60;;;7.70;;
5416;SDS011;2731;50.754;12.990;2022-07-22T04:22:55;14.00;;;8.33;;
5416;SDS011;2731;50.754;12.990;2022-07-22T04:25:20;10.43;;;7.55;;
5416;SDS011;2731;50.754;12.990;2022-07-22T04:27:45;9.47;;;7.77;;
5416;SDS011;2731;50.754;12.990;2022-07-22T04:30:11;9.63;;;7.60;;
5416;SDS011;2731;50.754;12.990;2022-07-22T04:32:36;11.35;;;7.65;;
5416;SDS011;2731;50.754;12.990;2022-07-22T04:35:02;12.20;;;8.35;;
5416;SDS011;2731;50.754;12.990;2022-07-22T04:37:27;11.30;;;8.13;;
5416;SDS011;2731;50.754;12.990;2022-07-22T04:39:52;9.85;;;7.88;;
5416;SDS011;2731;50.754;12.990;2022-07-22T04:42:18;10.07;;;7.87;;
5416;SDS011;2731;50.754;12.990;2022-07-22T04:44:43;14.43;;;8.43;;
5416;SDS011;2731;50.754;12.990;2022-07-22T04:47:09;10.35;;;8.52;;
5416;SDS011;2731;50.754;12.990;2022-07-22T04:49:35;10.75;;;8.38;;
5416;SDS011;2731;50.754;12.990;2022-07-22T04:52:00;10.00;;;8.67;;
5416;SDS011;2731;50.754;12.990;2022-07-22T04:54:25;9.80;;;8.80;;
5416;SDS011;2731;50.754;12.990;2022-07-22T04:56:50;9.23;;;8.23;;
5416;SDS011;2731;50.754;12.990;2022-07-22T04:59:16;10.07;;;8.10;;
5416;SDS011;2731;50.754;12.990;2022-07-22T05:01:45;10.13;;;9.13;;
5416;SDS011;2731;50.754;12.990;2022-07-22T05:04:11;10.85;;;7.45;;
5416;SDS011;2731;50.754;12.990;2022-07-22T05:06:38;10.43;;;9.18;;
5416;SDS011;2731;50.754;12.990;2022-07-22T05:09:04;9.77;;;8.77;;
5416;SDS011;2731;50.754;12.990;2022-07-22T05:11:29;10.03;;;8.00;;
5416;SDS011;2731;50.754;12.990;2022-07-22T05:13:54;10.05;;;8.38;;
5416;SDS011;2731;50.754;12.990;2022-07-22T05:16:21;9.10;;;8.07;;
5416;SDS011;2731;50.754;12.990;2022-07-22T05:18:46;11.35;;;8.88;;
5416;SDS011;2731;50.754;12.990;2022-07-22T05:21:11;12.60;;;9.30;;
5416;SDS011;2731;50.754;12.990;2022-07-22T05:23:37;8.93;;;7.75;;
5416;SDS011;2731;50.754;12.990;2022-07-22T05:26:03;8.85;;;7.95;;
5416;SDS011;2731;50.754;12.990;2022-07-22T05:28:29;9.32;;;8.43;;
5416;SDS011;2731;50.754;12.990;2022-07-22T05:30:54;9.40;;;8.40;;
5416;SDS011;2731;50.754;12.990;2022-07-22T05:33:19;9.00;;;7.97;;
5416;SDS011;2731;50.754;12.990;2022-07-22T05:35:44;9.73;;;8.73;;
5416;SDS011;2731;50.754;12.990;2022-07-22T05:38:09;10.53;;;8.83;;
5416;SDS011;2731;50.754;12.990;2022-07-22T05:40:35;10.00;;;7.97;;
5416;SDS011;2731;50.754;12.990;2022-07-22T05:43:00;9.93;;;8.90;;
5416;SDS011;2731;50.754;12.990;2022-07-22T05:45:25;9.87;;;8.87;;
5416;SDS011;2731;50.754;12.990;2022-07-22T05:47:51;8.93;;;8.00;;
5416;SDS011;2731;50.754;12.990;2022-07-22T05:50:18;11.13;;;8.57;;
5416;SDS011;2731;50.754;12.990;2022-07-22T05:52:43;9.50;;;7.65;;
5416;SDS011;2731;50.754;12.990;2022-07-22T05:55:09;8.63;;;7.73;;
5416;SDS011;2731;50.754;12.990;2022-07-22T05:57:36;7.47;;;6.57;;
5416;SDS011;2731;50.754;12.990;2022-07-22T06:00:03;9.38;;;7.00;;
5416;SDS011;2731;50.754;12.990;2022-07-22T06:02:28;8.57;;;6.70;;
5416;SDS011;2731;50.754;12.990;2022-07-22T06:04:53;9.17;;;7.23;;
5416;SDS011;2731;50.754;12.990;2022-07-22T06:07:20;11.57;;;6.72;;
5416;SDS011;2731;50.754;12.990;2022-07-22T06:09:45;8.15;;;6.95;;
5416;SDS011;2731;50.754;12.990;2022-07-22T06:12:11;8.05;;;6.38;;
5416;SDS011;2731;50.754;12.990;2022-07-22T06:14:38;7.43;;;6.17;;
5416;SDS011;2731;50.754;12.990;2022-07-22T06:17:03;9.77;;;6.80;;
5416;SDS011;2731;50.754;12.990;2022-07-22T06:19:29;8.45;;;7.40;;
5416;SDS011;2731;50.754;12.990;2022-07-22T06:21:54;8.80;;;6.82;;
5416;SDS011;2731;50.754;12.990;2022-07-22T06:24:20;10.10;;;8.07;;
5416;SDS011;2731;50.754;12.990;2022-07-22T06:26:45;9.97;;;8.27;;
5416;SDS011;2731;50.754;12.990;2022-07-22T06:29:10;9.80;;;6.75;;
5416;SDS011;2731;50.754;12.990;2022-07-22T06:31:35;13.40;;;6.70;;
5416;SDS011;2731;50.754;12.990;2022-07-22T06:34:03;11.57;;;7.60;;
5416;SDS011;2731;50.754;12.990;2022-07-22T06:36:30;8.18;;;7.15;;
5416;SDS011;2731;50.754;12.990;2022-07-22T06:38:56;7.80;;;6.65;;
5416;SDS011;2731;50.754;12.990;2022-07-22T06:41:22;10.02;;;8.10;;
5416;SDS011;2731;50.754;12.990;2022-07-22T06:43:59;9.68;;;6.82;;
5416;SDS011;2731;50.754;12.990;2022-07-22T06:46:25;10.13;;;7.75;;
5416;SDS011;2731;50.754;12.990;2022-07-22T06:48:50;9.77;;;7.60;;
5416;SDS011;2731;50.754;12.990;2022-07-22T06:51:15;8.20;;;6.77;;
5416;SDS011;2731;50.754;12.990;2022-07-22T06:53:41;10.43;;;7.30;;
5416;SDS011;2731;50.754;12.990;2022-07-22T06:56:06;9.20;;;6.78;;
5416;SDS011;2731;50.754;12.990;2022-07-22T06:58:31;8.15;;;6.85;;
5416;SDS011;2731;50.754;12.990;2022-07-22T07:00:58;7.60;;;6.63;;
5416;SDS011;2731;50.754;12.990;2022-07-22T07:03:26;8.38;;;7.03;;
5416;SDS011;2731;50.754;12.990;2022-07-22T07:05:52;8.93;;;7.10;;
5416;SDS011;2731;50.754;12.990;2022-07-22T07:08:17;8.57;;;7.13;;
5416;SDS011;2731;50.754;12.990;2022-07-22T07:10:43;11.25;;;7.28;;
5416;SDS011;2731;50.754;12.990;2022-07-22T07:13:10;11.98;;;8.35;;
5416;SDS011;2731;50.754;12.990;2022-07-22T07:15:35;9.45;;;7.82;;
5416;SDS011;2731;50.754;12.990;2022-07-22T07:18:01;9.30;;;7.63;;
5416;SDS011;2731;50.754;12.990;2022-07-22T07:20:26;9.77;;;8.68;;
5416;SDS011;2731;50.754;12.990;2022-07-22T07:22:53;11.23;;;8.33;;
5416;SDS011;2731;50.754;12.990;2022-07-22T07:25:18;9.50;;;7.57;;
5416;SDS011;2731;50.754;12.990;2022-07-22T07:27:44;10.18;;;7.47;;
5416;SDS011;2731;50.754;12.990;2022-07-22T07:30:10;14.43;;;7.30;;
5416;SDS011;2731;50.754;12.990;2022-07-22T07:32:37;8.63;;;7.35;;
5416;SDS011;2731;50.754;12.990;2022-07-22T07:35:07;9.57;;;8.15;;
5416;SDS011;2731;50.754;12.990;2022-07-22T07:37:34;9.32;;;7.75;;
5416;SDS011;2731;50.754;12.990;2022-07-22T07:39:59;10.60;;;7.82;;
5416;SDS011;2731;50.754;12.990;2022-07-22T07:42:26;13.85;;;9.18;;
5416;SDS011;2731;50.754;12.990;2022-07-22T07:44:53;11.15;;;8.70;;
5416;SDS011;2731;50.754;12.990;2022-07-22T07:47:18;8.68;;;7.28;;
5416;SDS011;2731;50.754;12.990;2022-07-22T07:49:46;10.13;;;8.40;;
5416;SDS011;2731;50.754;12.990;2022-07-22T07:52:13;13.20;;;8.52;;
5416;SDS011;2731;50.754;12.990;2022-07-22T07:54:39;10.82;;;8.57;;
5416;SDS011;2731;50.754;12.990;2022-07-22T07:57:07;9.35;;;7.80;;
5416;SDS011;2731;50.754;12.990;2022-07-22T07:59:34;11.82;;;10.23;;
5416;SDS011;2731;50.754;12.990;2022-07-22T08:01:59;10.27;;;8.90;;
5416;SDS011;2731;50.754;12.990;2022-07-22T08:04:25;13.83;;;8.90;;
5416;SDS011;2731;50.754;12.990;2022-07-22T08:06:50;9.90;;;8.57;;
5416;SDS011;2731;50.754;12.990;2022-07-22T08:09:15;11.87;;;8.80;;
5416;SDS011;2731;50.754;12.990;2022-07-22T08:11:40;9.43;;;8.00;;
5416;SDS011;2731;50.754;12.990;2022-07-22T08:14:06;12.98;;;7.50;;
5416;SDS011;2731;50.754;12.990;2022-07-22T08:16:31;8.80;;;7.90;;
5416;SDS011;2731;50.754;12.990;2022-07-22T08:18:56;8.07;;;7.27;;
5416;SDS011;2731;50.754;12.990;2022-07-22T08:21:23;10.90;;;7.50;;
5416;SDS011;2731;50.754;12.990;2022-07-22T08:23:50;9.85;;;7.78;;
5416;SDS011;2731;50.754;12.990;2022-07-22T08:26:15;10.20;;;7.82;;
5416;SDS011;2731;50.754;12.990;2022-07-22T08:28:40;9.82;;;8.10;;
5416;SDS011;2731;50.754;12.990;2022-07-22T08:31:07;8.10;;;7.30;;
5416;SDS011;2731;50.754;12.990;2022-07-22T08:33:36;9.65;;;7.38;;
5416;SDS011;2731;50.754;12.990;2022-07-22T08:36:01;8.73;;;7.80;;
5416;SDS011;2731;50.754;12.990;2022-07-22T08:38:27;10.57;;;7.85;;
5416;SDS011;2731;50.754;12.990;2022-07-22T08:40:54;8.27;;;7.47;;
5416;SDS011;2731;50.754;12.990;2022-07-22T08:43:22;8.15;;;6.90;;
5416;SDS011;2731;50.754;12.990;2022-07-22T08:45:47;9.07;;;8.18;;
5416;SDS011;2731;50.754;12.990;2022-07-22T08:48:13;8.07;;;6.95;;
5416;SDS011;2731;50.754;12.990;2022-07-22T08:50:39;12.20;;;8.55;;
5416;SDS011;2731;50.754;12.990;2022-07-22T08:53:11;10.80;;;7.97;;
5416;SDS011;2731;50.754;12.990;2022-07-22T08:55:46;13.27;;;8.15;;
5416;SDS011;2731;50.754;12.990;2022-07-22T08:58:12;11.13;;;8.07;;
5416;SDS011;2731;50.754;12.990;2022-07-22T09:00:38;9.68;;;7.93;;
5416;SDS011;2731;50.754;12.990;2022-07-22T09:03:26;9.75;;;7.72;;
5416;SDS011;2731;50.754;12.990;2022-07-22T09:05:52;10.18;;;7.28;;
5416;SDS011;2731;50.754;12.990;2022-07-22T09:08:19;11.82;;;7.57;;
5416;SDS011;2731;50.754;12.990;2022-07-22T09:10:45;7.78;;;6.97;;
5416;SDS011;2731;50.754;12.990;2022-07-22T09:13:11;11.50;;;7.40;;
5416;SDS011;2731;50.754;12.990;2022-07-22T09:15:37;9.05;;;7.13;;
5416;SDS011;2731;50.754;12.990;2022-07-22T09:18:04;9.95;;;7.60;;
5416;SDS011;2731;50.754;12.990;2022-07-22T09:20:30;9.88;;;7.35;;
5416;SDS011;2731;50.754;12.990;2022-07-22T09:22:56;8.82;;;7.88;;
5416;SDS011;2731;50.754;12.990;2022-07-22T09:27:48;10.45;;;7.38;;
5416;SDS011;2731;50.754;12.990;2022-07-22T09:30:14;10.77;;;7.35;;
5416;SDS011;2731;50.754;12.990;2022-07-22T09:32:40;10.68;;;7.20;;
5416;SDS011;2731;50.754;12.990;2022-07-22T09:35:06;13.57;;;7.10;;
5416;SDS011;2731;50.754;12.990;2022-07-22T09:37:32;9.45;;;6.75;;
5416;SDS011;2731;50.754;12.990;2022-07-22T09:42:59;10.07;;;7.93;;
5416;SDS011;2731;50.754;12.990;2022-07-22T09:45:25;10.77;;;7.18;;
5416;SDS011;2731;50.754;12.990;2022-07-22T09:47:51;8.52;;;7.40;;
5416;SDS011;2731;50.754;12.990;2022-07-22T09:50:21;7.05;;;6.35;;
5416;SDS011;2731;50.754;12.990;2022-07-22T09:52:46;17.45;;;7.35;;
5416;SDS011;2731;50.754;12.990;2022-07-22T09:55:15;8.88;;;7.15;;
5416;SDS011;2731;50.754;12.990;2022-07-22T09:57:41;6.60;;;5.97;;
5416;SDS011;2731;50.754;12.990;2022-07-22T10:00:07;7.95;;;6.88;;
5416;SDS011;2731;50.754;12.990;2022-07-22T10:02:44;7.28;;;6.10;;
5416;SDS011;2731;50.754;12.990;2022-07-22T10:05:11;7.05;;;6.20;;
5416;SDS011;2731;50.754;12.990;2022-07-22T10:07:38;6.97;;;6.00;;
5416;SDS011;2731;50.754;12.990;2022-07-22T10:10:04;9.27;;;6.68;;
5416;SDS011;2731;50.754;12.990;2022-07-22T10:12:30;6.97;;;6.28;;
5416;SDS011;2731;50.754;12.990;2022-07-22T10:14:56;8.93;;;6.47;;
5416;SDS011;2731;50.754;12.990;2022-07-22T10:17:21;8.32;;;5.97;;
5416;SDS011;2731;50.754;12.990;2022-07-22T10:19:46;9.20;;;5.82;;
5416;SDS011;2731;50.754;12.990;2022-07-22T10:25:00;9.70;;;6.30;;
5416;SDS011;2731;50.754;12.990;2022-07-22T10:30:12;7.07;;;5.85;;
5416;SDS011;2731;50.754;12.990;2022-07-22T10:32:37;7.80;;;5.90;;
5416;SDS011;2731;50.754;12.990;2022-07-22T10:37:36;5.93;;;5.32;;
5416;SDS011;2731;50.754;12.990;2022-07-22T10:46:08;7.85;;;6.70;;
5416;SDS011;2731;50.754;12.990;2022-07-22T10:48:18;9.25;;;6.32;;
5416;SDS011;2731;50.754;12.990;2022-07-22T10:50:49;10.98;;;6.55;;
5416;SDS011;2731;50.754;12.990;2022-07-22T10:53:25;9.05;;;5.70;;
5416;SDS011;2731;50.754;12.990;2022-07-22T10:56:07;7.60;;;5.55;;
5416;SDS011;2731;50.754;12.990;2022-07-22T11:00:59;6.40;;;5.80;;
5416;SDS011;2731;50.754;12.990;2022-07-22T11:03:26;8.48;;;6.00;;
5416;SDS011;2731;50.754;12.990;2022-07-22T11:05:55;6.65;;;6.00;;
5416;SDS011;2731;50.754;12.990;2022-07-22T11:08:22;7.60;;;5.53;;
5416;SDS011;2731;50.754;12.990;2022-07-22T11:10:48;8.75;;;6.38;;
5416;SDS011;2731;50.754;12.990;2022-07-22T11:13:32;6.57;;;5.88;;
5416;SDS011;2731;50.754;12.990;2022-07-22T11:16:14;6.78;;;5.45;;
5416;SDS011;2731;50.754;12.990;2022-07-22T11:18:44;5.93;;;5.32;;
5416;SDS011;2731;50.754;12.990;2022-07-22T11:21:09;12.43;;;5.80;;
5416;SDS011;2731;50.754;12.990;2022-07-22T11:23:34;5.60;;;5.10;;
5416;SDS011;2731;50.754;12.990;2022-07-22T11:26:03;6.80;;;5.65;;
5416;SDS011;2731;50.754;12.990;2022-07-22T11:28:28;7.10;;;5.35;;
5416;SDS011;2731;50.754;12.990;2022-07-22T11:31:07;6.10;;;5.13;;
5416;SDS011;2731;50.754;12.990;2022-07-22T11:33:33;6.30;;;4.90;;
5416;SDS011;2731;50.754;12.990;2022-07-22T11:36:02;6.35;;;5.45;;
5416;SDS011;2731;50.754;12.990;2022-07-22T11:38:49;7.35;;;5.97;;
5416;SDS011;2731;50.754;12.990;2022-07-22T11:41:17;5.40;;;4.90;;
5416;SDS011;2731;50.754;12.990;2022-07-22T11:43:48;6.43;;;5.28;;
5416;SDS011;2731;50.754;12.990;2022-07-22T11:46:17;9.05;;;4.95;;
5416;SDS011;2731;50.754;12.990;2022-07-22T11:48:43;5.90;;;4.82;;
5416;SDS011;2731;50.754;12.990;2022-07-22T11:51:12;5.95;;;5.15;;
5416;SDS011;2731;50.754;12.990;2022-07-22T11:53:39;6.43;;;5.05;;
5416;SDS011;2731;50.754;12.990;2022-07-22T11:56:06;9.45;;;5.22;;
5416;SDS011;2731;50.754;12.990;2022-07-22T11:58:53;6.95;;;5.13;;
5416;SDS011;2731;50.754;12.990;2022-07-22T12:01:20;7.18;;;4.95;;
5416;SDS011;2731;50.754;12.990;2022-07-22T12:03:48;6.93;;;5.22;;
5416;SDS011;2731;50.754;12.990;2022-07-22T12:06:15;7.47;;;5.72;;
5416;SDS011;2731;50.754;12.990;2022-07-22T12:08:42;6.03;;;5.30;;
5416;SDS011;2731;50.754;12.990;2022-07-22T12:11:10;6.82;;;5.38;;
5416;SDS011;2731;50.754;12.990;2022-07-22T12:13:35;6.65;;;5.75;;
5416;SDS011;2731;50.754;12.990;2022-07-22T12:16:15;10.07;;;5.55;;
5416;SDS011;2731;50.754;12.990;2022-07-22T12:18:41;6.05;;;5.22;;
5416;SDS011;2731;50.754;12.990;2022-07-22T12:21:08;5.97;;;5.20;;
5416;SDS011;2731;50.754;12.990;2022-07-22T12:23:33;5.68;;;5.05;;
5416;SDS011;2731;50.754;12.990;2022-07-22T12:25:59;6.00;;;5.22;;
5416;SDS011;2731;50.754;12.990;2022-07-22T12:28:27;7.07;;;5.35;;
5416;SDS011;2731;50.754;12.990;2022-07-22T12:30:54;6.05;;;4.60;;
5416;SDS011;2731;50.754;12.990;2022-07-22T12:33:22;7.00;;;5.07;;
5416;SDS011;2731;50.754;12.990;2022-07-22T12:38:44;6.55;;;5.20;;
5416;SDS011;2731;50.754;12.990;2022-07-22T12:41:23;5.60;;;5.10;;
5416;SDS011;2731;50.754;12.990;2022-07-22T12:43:51;6.57;;;5.47;;
5416;SDS011;2731;50.754;12.990;2022-07-22T12:46:18;7.88;;;5.60;;
5416;SDS011;2731;50.754;12.990;2022-07-22T12:48:53;5.28;;;4.53;;
5416;SDS011;2731;50.754;12.990;2022-07-22T12:51:20;7.32;;;5.03;;
5416;SDS011;2731;50.754;12.990;2022-07-22T12:53:47;6.25;;;5.65;;
5416;SDS011;2731;50.754;12.990;2022-07-22T12:56:12;8.40;;;4.70;;
5416;SDS011;2731;50.754;12.990;2022-07-22T12:58:38;6.15;;;4.65;;
5416;SDS011;2731;50.754;12.990;2022-07-22T13:01:08;8.20;;;4.70;;
5416;SDS011;2731;50.754;12.990;2022-07-22T13:03:45;5.65;;;5.05;;
5416;SDS011;2731;50.754;12.990;2022-07-22T13:06:13;7.30;;;5.18;;
5416;SDS011;2731;50.754;12.990;2022-07-22T13:08:38;7.90;;;5.40;;
5416;SDS011;2731;50.754;12.990;2022-07-22T13:11:05;5.55;;;5.00;;
5416;SDS011;2731;50.754;12.990;2022-07-22T13:13:32;6.30;;;4.97;;
5416;SDS011;2731;50.754;12.990;2022-07-22T13:15:58;5.97;;;5.38;;
5416;SDS011;2731;50.754;12.990;2022-07-22T13:18:24;122.43;;;17.02;;
5416;SDS011;2731;50.754;12.990;2022-07-22T13:20:49;10.00;;;5.13;;
5416;SDS011;2731;50.754;12.990;2022-07-22T13:23:15;10.27;;;5.15;;
5416;SDS011;2731;50.754;12.990;2022-07-22T13:25:48;5.15;;;4.65;;
5416;SDS011;2731;50.754;12.990;2022-07-22T13:28:14;6.13;;;4.82;;
5416;SDS011;2731;50.754;12.990;2022-07-22T13:30:39;8.27;;;5.13;;
5416;SDS011;2731;50.754;12.990;2022-07-22T13:33:07;6.75;;;4.70;;
5416;SDS011;2731;50.754;12.990;2022-07-22T13:35:32;5.13;;;4.63;;
5416;SDS011;2731;50.754;12.990;2022-07-22T13:37:59;5.88;;;5.22;;
5416;SDS011;2731;50.754;12.990;2022-07-22T13:40:25;5.07;;;4.45;;
5416;SDS011;2731;50.754;12.990;2022-07-22T13:42:51;5.30;;;4.32;;
5416;SDS011;2731;50.754;12.990;2022-07-22T13:45:16;6.47;;;4.60;;
5416;SDS011;2731;50.754;12.990;2022-07-22T13:47:45;6.13;;;4.55;;
5416;SDS011;2731;50.754;12.990;2022-07-22T13:50:11;5.72;;;5.15;;
5416;SDS011;2731;50.754;12.990;2022-07-22T13:52:37;7.03;;;5.32;;
5416;SDS011;2731;50.754;12.990;2022-07-22T13:55:03;5.30;;;4.80;;
5416;SDS011;2731;50.754;12.990;2022-07-22T13:57:29;8.82;;;5.10;;
5416;SDS011;2731;50.754;12.990;2022-07-22T13:59:55;5.25;;;4.75;;
5416;SDS011;2731;50.754;12.990;2022-07-22T14:02:21;5.82;;;4.20;;
5416;SDS011;2731;50.754;12.990;2022-07-22T14:04:47;9.30;;;4.85;;
5416;SDS011;2731;50.754;12.990;2022-07-22T14:07:14;4.53;;;4.13;;
5416;SDS011;2731;50.754;12.990;2022-07-22T14:09:39;6.47;;;4.70;;
5416;SDS011;2731;50.754;12.990;2022-07-22T14:12:06;6.47;;;4.85;;
5416;SDS011;2731;50.754;12.990;2022-07-22T14:14:33;5.45;;;4.63;;
5416;SDS011;2731;50.754;12.990;2022-07-22T14:17:00;7.10;;;5.10;;
5416;SDS011;2731;50.754;12.990;2022-07-22T14:19:25;5.80;;;5.18;;
5416;SDS011;2731;50.754;12.990;2022-07-22T14:21:53;7.00;;;5.18;;
5416;SDS011;2731;50.754;12.990;2022-07-22T14:24:18;5.18;;;4.60;;
5416;SDS011;2731;50.754;12.990;2022-07-22T14:26:44;5.20;;;4.70;;
5416;SDS011;2731;50.754;12.990;2022-07-22T14:29:09;4.60;;;4.18;;
5416;SDS011;2731;50.754;12.990;2022-07-22T14:31:35;5.30;;;4.80;;
5416;SDS011;2731;50.754;12.990;2022-07-22T14:34:00;4.90;;;4.32;;
5416;SDS011;2731;50.754;12.990;2022-07-22T14:36:25;5.70;;;4.93;;
5416;SDS011;2731;50.754;12.990;2022-07-22T14:38:51;5.38;;;4.22;;
5416;SDS011;2731;50.754;12.990;2022-07-22T14:41:18;6.60;;;4.63;;
5416;SDS011;2731;50.754;12.990;2022-07-22T14:43:44;6.32;;;4.50;;
5416;SDS011;2731;50.754;12.990;2022-07-22T14:46:09;9.30;;;4.20;;
5416;SDS011;2731;50.754;12.990;2022-07-22T14:48:36;5.22;;;4.72;;
5416;SDS011;2731;50.754;12.990;2022-07-22T14:51:03;7.10;;;4.70;;
5416;SDS011;2731;50.754;12.990;2022-07-22T14:53:29;6.03;;;5.00;;
5416;SDS011;2731;50.754;12.990;2022-07-22T14:55:54;7.13;;;4.75;;
5416;SDS011;2731;50.754;12.990;2022-07-22T14:58:20;7.72;;;5.43;;
5416;SDS011;2731;50.754;12.990;2022-07-22T15:00:45;7.47;;;4.72;;
5416;SDS011;2731;50.754;12.990;2022-07-22T15:03:12;7.22;;;5.18;;
5416;SDS011;2731;50.754;12.990;2022-07-22T15:05:38;4.75;;;4.32;;
5416;SDS011;2731;50.754;12.990;2022-07-22T15:08:07;4.85;;;4.45;;
5416;SDS011;2731;50.754;12.990;2022-07-22T15:10:32;8.10;;;4.82;;
5416;SDS011;2731;50.754;12.990;2022-07-22T15:12:58;6.97;;;5.20;;
5416;SDS011;2731;50.754;12.990;2022-07-22T15:15:23;7.23;;;5.00;;
5416;SDS011;2731;50.754;12.990;2022-07-22T15:17:50;6.22;;;4.80;;